CST,Max TemperatureF,Mean TemperatureF,Min TemperatureF,Max Dew PointF,MeanDew PointF,Min DewpointF,Max Humidity, Mean Humidity, Min Humidity, Max Sea Level PressureIn, Mean Sea Level PressureIn, Min Sea Level PressureIn, Max VisibilityMiles, Mean VisibilityMiles, Min VisibilityMiles, Max Wind SpeedMPH, Mean Wind SpeedMPH, Max Gust SpeedMPH,PrecipitationIn, CloudCover, Events, WindDirDegrees
2013-1-1,41,36,32,41,37,32,100,100,100,30.21,30.10,30.02,10,4,1,14,4,17,0.33,8,Rain,4
2013-1-2,32,28,24,30,27,21,100,93,64,30.29,30.24,30.19,10,7,4,12,7,,0.00,4,,3
2013-1-3,42,33,24,32,28,25,100,92,53,30.43,30.36,30.27,10,9,6,8,1,,0.00,0,,342
2013-1-4,44,35,26,32,30,27,100,89,53,30.51,30.43,30.40,10,9,5,9,1,,0.00,0,,340
2013-1-5,42,36,30,37,33,30,100,94,66,30.42,30.34,30.28,10,9,7,9,2,,0.00,5,,199
2013-1-6,48,40,32,39,34,32,100,93,58,30.39,30.30,30.24,10,6,0,9,6,,0.00,2,,254
2013-1-7,50,38,26,32,29,27,100,85,43,30.43,30.33,30.22,10,9,5,10,3,,0.00,0,,52
2013-1-8,55,42,30,45,36,28,100,78,51,30.29,30.21,30.16,10,10,8,13,2,,0.00,2,,142
2013-1-9,53,52,50,54,51,46,100,95,77,30.35,30.27,30.22,10,5,2,10,7,,0.58,8,Rain,105
2013-1-10,64,58,53,64,62,57,100,100,100,30.29,30.11,29.92,10,6,2,17,11,26,0.36,8,Rain,143
2013-1-11,64,58,51,61,56,48,100,92,56,30.06,29.99,29.95,10,9,1,20,12,26,0.02,5,,194
2013-1-12,69,66,62,70,66,63,100,100,88,29.97,29.89,29.77,10,7,2,20,10,26,0.05,7,Rain,174
2013-1-13,68,50,32,66,45,32,100,99,94,30.28,30.00,29.76,10,7,0,18,14,29,1.89,8,Rain,341
2013-1-14,30,28,26,30,28,27,100,100,93,30.41,30.29,30.25,10,10,5,16,11,26,0.00,4,Rain,18
2013-1-15,30,28,26,30,28,27,100,100,100,30.30,30.17,30.07,10,6,1,15,2,22,0.00,6,Rain,19
2013-1-16,32,31,30,32,31,30,100,100,100,30.24,30.13,30.05,7,4,2,6,1,,0.00,8,,6
2013-1-17,44,38,32,37,33,32,100,97,71,30.48,30.25,30.12,10,9,5,16,8,24,0.00,3,,349
2013-1-18,50,38,26,32,30,27,100,84,43,30.59,30.47,30.36,10,9,7,7,2,,0.00,0,,143
2013-1-19,55,44,32,37,34,32,100,85,44,30.36,30.29,30.20,10,10,8,14,8,17,0.00,0,,189
2013-1-20,57,46,33,37,33,30,100,75,38,30.27,30.20,30.17,10,9,5,14,6,,0.00,0,,28
2013-1-21,41,34,26,30,23,19,93,70,42,30.36,30.27,30.18,10,10,7,15,6,23,0.00,0,,15
2013-1-22,37,30,23,25,20,18,100,71,48,30.44,30.36,30.33,10,10,8,8,2,,0.00,3,,39
2013-1-23,51,38,26,43,29,19,100,77,54,30.35,30.28,30.19,10,10,6,9,1,,0.00,2,,186
2013-1-24,42,38,33,43,28,18,100,70,49,30.44,30.28,30.22,10,10,8,18,6,28,0.00,6,,54
2013-1-25,46,39,32,46,32,23,100,83,52,30.26,30.18,30.04,10,7,2,16,6,25,0.00,6,,109
2013-1-26,51,42,32,36,33,32,100,80,47,30.34,30.28,30.26,10,6,0,9,2,,0.00,4,,70
2013-1-27,60,52,44,55,45,34,94,77,62,30.28,30.21,30.14,10,9,4,16,7,21,0.00,5,,146
2013-1-28,71,63,55,63,58,55,100,94,69,30.19,30.12,30.08,10,9,2,18,13,24,0.00,6,,175
2013-1-29,73,65,57,66,62,57,100,93,65,30.07,29.84,29.49,10,8,4,31,13,45,0.06,5,,168
2013-1-30,68,50,32,68,44,28,100,90,70,30.04,29.73,29.52,10,7,0,28,13,39,1.40,5,Rain,259
2013-1-31,51,38,26,36,30,27,100,81,47,30.34,30.14,30.04,10,10,8,22,10,32,0.00,2,,276